sensor_id;sensor_type;location;lat;lon;timestamp;temperature;humidity
75819;DHT22;64453;51.944;9.796;2022-11-20T00:00:40;1.90;47.70
75819;DHT22;64453;51.944;9.796;2022-11-20T00:03:07;2.00;47.30
75819;DHT22;64453;51.944;9.796;2022-11-20T00:05:34;1.80;47.50
75819;DHT22;64453;51.944;9.796;2022-11-20T00:08:01;1.60;48.00
75819;DHT22;64453;51.944;9.796;2022-11-20T00:10:28;1.40;48.60
75819;DHT22;64453;51.944;9.796;2022-11-20T00:12:57;1.50;48.20
75819;DHT22;64453;51.944;9.796;2022-11-20T00:15:26;1.60;48.10
75819;DHT22;64453;51.944;9.796;2022-11-20T00:17:53;1.60;47.90
75819;DHT22;64453;51.944;9.796;2022-11-20T00:20:20;1.80;47.30
75819;DHT22;64453;51.944;9.796;2022-11-20T00:22:47;1.80;46.80
75819;DHT22;64453;51.944;9.796;2022-11-20T00:25:15;1.80;46.90
75819;DHT22;64453;51.944;9.796;2022-11-20T00:27:42;1.80;47.10
75819;DHT22;64453;51.944;9.796;2022-11-20T00:30:10;1.90;46.70
75819;DHT22;64453;51.944;9.796;2022-11-20T00:32:38;1.90;46.80
75819;DHT22;64453;51.944;9.796;2022-11-20T00:35:06;1.90;46.60
75819;DHT22;64453;51.944;9.796;2022-11-20T00:37:33;1.80;46.80
75819;DHT22;64453;51.944;9.796;2022-11-20T00:40:00;1.60;47.10
75819;DHT22;64453;51.944;9.796;2022-11-20T00:42:27;1.70;46.90
75819;DHT22;64453;51.944;9.796;2022-11-20T00:44:54;1.80;47.00
75819;DHT22;64453;51.944;9.796;2022-11-20T00:47:21;1.90;46.80
75819;DHT22;64453;51.944;9.796;2022-11-20T00:49:50;1.90;46.90
75819;DHT22;64453;51.944;9.796;2022-11-20T00:52:16;1.80;46.70
75819;DHT22;64453;51.944;9.796;2022-11-20T00:54:43;1.90;46.80
75819;DHT22;64453;51.944;9.796;2022-11-20T00:57:10;1.80;46.70
75819;DHT22;64453;51.944;9.796;2022-11-20T00:59:37;1.80;46.20
75819;DHT22;64453;51.944;9.796;2022-11-20T01:02:04;1.80;46.20
75819;DHT22;64453;51.944;9.796;2022-11-20T01:04:31;1.80;46.10
75819;DHT22;64453;51.944;9.796;2022-11-20T01:07:00;1.90;46.20
75819;DHT22;64453;51.944;9.796;2022-11-20T01:09:27;1.90;46.20
75819;DHT22;64453;51.944;9.796;2022-11-20T01:11:54;1.70;46.30
75819;DHT22;64453;51.944;9.796;2022-11-20T01:14:21;1.50;46.40
75819;DHT22;64453;51.944;9.796;2022-11-20T01:16:50;1.70;46.30
75819;DHT22;64453;51.944;9.796;2022-11-20T01:19:20;1.50;46.50
75819;DHT22;64453;51.944;9.796;2022-11-20T01:21:50;1.50;46.60
75819;DHT22;64453;51.944;9.796;2022-11-20T01:24:20;1.40;47.10
75819;DHT22;64453;51.944;9.796;2022-11-20T01:26:49;1.50;47.00
75819;DHT22;64453;51.944;9.796;2022-11-20T01:29:18;1.50;46.70
75819;DHT22;64453;51.944;9.796;2022-11-20T01:31:46;1.40;46.80
75819;DHT22;64453;51.944;9.796;2022-11-20T01:34:16;1.50;46.70
75819;DHT22;64453;51.944;9.796;2022-11-20T01:36:45;1.60;46.70
75819;DHT22;64453;51.944;9.796;2022-11-20T01:39:15;1.60;46.70
75819;DHT22;64453;51.944;9.796;2022-11-20T01:41:45;1.60;46.40
75819;DHT22;64453;51.944;9.796;2022-11-20T01:44:52;1.80;46.40
75819;DHT22;64453;51.944;9.796;2022-11-20T01:47:36;1.80;45.70
75819;DHT22;64453;51.944;9.796;2022-11-20T01:50:11;1.40;46.50
75819;DHT22;64453;51.944;9.796;2022-11-20T01:52:44;1.00;47.50
75819;DHT22;64453;51.944;9.796;2022-11-20T01:55:16;0.90;47.70
75819;DHT22;64453;51.944;9.796;2022-11-20T01:57:48;1.00;47.60
75819;DHT22;64453;51.944;9.796;2022-11-20T02:00:17;1.00;47.90
75819;DHT22;64453;51.944;9.796;2022-11-20T02:02:49;1.20;47.00
75819;DHT22;64453;51.944;9.796;2022-11-20T02:05:22;1.10;46.80
75819;DHT22;64453;51.944;9.796;2022-11-20T02:07:50;1.10;47.00
75819;DHT22;64453;51.944;9.796;2022-11-20T02:10:19;1.10;46.80
75819;DHT22;64453;51.944;9.796;2022-11-20T02:12:48;1.20;46.70
75819;DHT22;64453;51.944;9.796;2022-11-20T02:15:33;1.30;46.50
75819;DHT22;64453;51.944;9.796;2022-11-20T02:18:01;1.30;46.40
75819;DHT22;64453;51.944;9.796;2022-11-20T02:20:28;1.20;47.00
75819;DHT22;64453;51.944;9.796;2022-11-20T02:22:57;1.20;46.70
75819;DHT22;64453;51.944;9.796;2022-11-20T02:25:28;1.20;46.50
75819;DHT22;64453;51.944;9.796;2022-11-20T02:27:56;1.10;46.40
75819;DHT22;64453;51.944;9.796;2022-11-20T02:30:24;1.10;46.40
75819;DHT22;64453;51.944;9.796;2022-11-20T02:32:51;1.10;46.40
75819;DHT22;64453;51.944;9.796;2022-11-20T02:35:41;1.00;46.90
75819;DHT22;64453;51.944;9.796;2022-11-20T02:38:10;1.20;46.70
75819;DHT22;64453;51.944;9.796;2022-11-20T02:40:38;1.20;46.50
75819;DHT22;64453;51.944;9.796;2022-11-20T02:43:05;1.20;46.20
75819;DHT22;64453;51.944;9.796;2022-11-20T02:45:33;1.10;46.40
75819;DHT22;64453;51.944;9.796;2022-11-20T02:48:00;1.00;47.20
75819;DHT22;64453;51.944;9.796;2022-11-20T02:50:27;1.00;46.60
75819;DHT22;64453;51.944;9.796;2022-11-20T02:52:54;1.00;46.50
75819;DHT22;64453;51.944;9.796;2022-11-20T02:55:22;1.10;46.50
75819;DHT22;64453;51.944;9.796;2022-11-20T02:57:51;1.00;46.90
75819;DHT22;64453;51.944;9.796;2022-11-20T03:00:18;1.20;46.50
75819;DHT22;64453;51.944;9.796;2022-11-20T03:02:45;1.20;46.60
75819;DHT22;64453;51.944;9.796;2022-11-20T03:05:12;1.30;46.50
75819;DHT22;64453;51.944;9.796;2022-11-20T03:07:39;1.30;46.40
75819;DHT22;64453;51.944;9.796;2022-11-20T03:10:07;1.30;46.50
75819;DHT22;64453;51.944;9.796;2022-11-20T03:12:35;1.20;46.40
75819;DHT22;64453;51.944;9.796;2022-11-20T03:15:04;1.20;46.40
75819;DHT22;64453;51.944;9.796;2022-11-20T03:17:32;1.20;46.50
75819;DHT22;64453;51.944;9.796;2022-11-20T03:20:00;1.20;46.60
75819;DHT22;64453;51.944;9.796;2022-11-20T03:22:28;1.20;46.30
75819;DHT22;64453;51.944;9.796;2022-11-20T03:24:55;1.10;46.00
75819;DHT22;64453;51.944;9.796;2022-11-20T03:27:22;0.90;46.20
75819;DHT22;64453;51.944;9.796;2022-11-20T03:29:50;0.90;46.30
75819;DHT22;64453;51.944;9.796;2022-11-20T03:32:18;1.10;46.70
75819;DHT22;64453;51.944;9.796;2022-11-20T03:34:45;1.10;46.20
75819;DHT22;64453;51.944;9.796;2022-11-20T03:37:12;1.00;46.40
75819;DHT22;64453;51.944;9.796;2022-11-20T03:39:39;1.00;46.60
75819;DHT22;64453;51.944;9.796;2022-11-20T03:42:06;0.90;46.40
75819;DHT22;64453;51.944;9.796;2022-11-20T03:44:53;0.70;46.90
75819;DHT22;64453;51.944;9.796;2022-11-20T03:47:22;0.60;47.40
75819;DHT22;64453;51.944;9.796;2022-11-20T03:49:49;0.90;46.90
75819;DHT22;64453;51.944;9.796;2022-11-20T03:52:16;0.90;46.60
75819;DHT22;64453;51.944;9.796;2022-11-20T03:54:43;0.70;46.60
75819;DHT22;64453;51.944;9.796;2022-11-20T03:57:10;0.90;46.50
75819;DHT22;64453;51.944;9.796;2022-11-20T03:59:37;0.90;46.20
75819;DHT22;64453;51.944;9.796;2022-11-20T04:02:04;0.60;46.90
75819;DHT22;64453;51.944;9.796;2022-11-20T04:04:32;0.70;46.90
75819;DHT22;64453;51.944;9.796;2022-11-20T04:06:59;0.70;47.00
75819;DHT22;64453;51.944;9.796;2022-11-20T04:09:26;0.90;46.60
75819;DHT22;64453;51.944;9.796;2022-11-20T04:11:53;1.00;46.20
75819;DHT22;64453;51.944;9.796;2022-11-20T04:14:20;1.10;46.30
75819;DHT22;64453;51.944;9.796;2022-11-20T04:16:47;0.90;46.00
75819;DHT22;64453;51.944;9.796;2022-11-20T04:19:16;0.80;46.30
75819;DHT22;64453;51.944;9.796;2022-11-20T04:21:44;0.70;46.70
75819;DHT22;64453;51.944;9.796;2022-11-20T04:24:11;0.60;46.60
75819;DHT22;64453;51.944;9.796;2022-11-20T04:26:39;0.70;46.70
75819;DHT22;64453;51.944;9.796;2022-11-20T04:29:06;0.60;46.60
75819;DHT22;64453;51.944;9.796;2022-11-20T04:31:36;0.60;46.20
75819;DHT22;64453;51.944;9.796;2022-11-20T04:34:04;0.50;45.90
75819;DHT22;64453;51.944;9.796;2022-11-20T04:36:32;0.50;46.10
75819;DHT22;64453;51.944;9.796;2022-11-20T04:39:03;0.70;45.60
75819;DHT22;64453;51.944;9.796;2022-11-20T04:41:33;0.60;45.50
75819;DHT22;64453;51.944;9.796;2022-11-20T04:44:02;0.60;45.90
75819;DHT22;64453;51.944;9.796;2022-11-20T04:46:32;0.50;46.10
75819;DHT22;64453;51.944;9.796;2022-11-20T04:49:00;0.50;46.10
75819;DHT22;64453;51.944;9.796;2022-11-20T04:51:28;0.50;45.80
75819;DHT22;64453;51.944;9.796;2022-11-20T04:53:55;0.40;46.60
75819;DHT22;64453;51.944;9.796;2022-11-20T04:56:24;0.50;46.50
75819;DHT22;64453;51.944;9.796;2022-11-20T04:58:51;0.50;46.20
75819;DHT22;64453;51.944;9.796;2022-11-20T05:01:19;0.70;46.30
75819;DHT22;64453;51.944;9.796;2022-11-20T05:03:48;0.70;46.30
75819;DHT22;64453;51.944;9.796;2022-11-20T05:06:16;0.60;46.00
75819;DHT22;64453;51.944;9.796;2022-11-20T05:08:45;0.60;46.00
75819;DHT22;64453;51.944;9.796;2022-11-20T05:11:14;0.50;46.00
75819;DHT22;64453;51.944;9.796;2022-11-20T05:13:43;0.50;46.00
75819;DHT22;64453;51.944;9.796;2022-11-20T05:16:12;0.50;46.20
75819;DHT22;64453;51.944;9.796;2022-11-20T05:18:41;0.80;45.80
75819;DHT22;64453;51.944;9.796;2022-11-20T05:21:09;0.70;45.70
75819;DHT22;64453;51.944;9.796;2022-11-20T05:23:37;0.60;45.80
75819;DHT22;64453;51.944;9.796;2022-11-20T05:26:04;0.60;45.90
75819;DHT22;64453;51.944;9.796;2022-11-20T05:28:35;0.60;45.90
75819;DHT22;64453;51.944;9.796;2022-11-20T05:31:08;0.60;45.90
75819;DHT22;64453;51.944;9.796;2022-11-20T05:33:38;0.60;45.90
75819;DHT22;64453;51.944;9.796;2022-11-20T05:36:07;0.80;45.60
75819;DHT22;64453;51.944;9.796;2022-11-20T05:38:35;0.60;45.30
75819;DHT22;64453;51.944;9.796;2022-11-20T05:41:06;0.30;46.30
75819;DHT22;64453;51.944;9.796;2022-11-20T05:43:34;0.30;46.40
75819;DHT22;64453;51.944;9.796;2022-11-20T05:46:03;0.40;46.20
75819;DHT22;64453;51.944;9.796;2022-11-20T05:48:33;0.50;46.30
75819;DHT22;64453;51.944;9.796;2022-11-20T05:51:02;0.50;45.90
75819;DHT22;64453;51.944;9.796;2022-11-20T05:53:32;0.60;45.90
75819;DHT22;64453;51.944;9.796;2022-11-20T05:55:59;0.50;45.70
75819;DHT22;64453;51.944;9.796;2022-11-20T05:58:27;0.40;46.50
75819;DHT22;64453;51.944;9.796;2022-11-20T06:01:02;0.40;45.80
75819;DHT22;64453;51.944;9.796;2022-11-20T06:03:32;0.40;45.70
75819;DHT22;64453;51.944;9.796;2022-11-20T06:05:59;0.50;45.40
75819;DHT22;64453;51.944;9.796;2022-11-20T06:08:26;0.40;45.70
75819;DHT22;64453;51.944;9.796;2022-11-20T06:10:53;0.40;45.70
75819;DHT22;64453;51.944;9.796;2022-11-20T06:13:20;0.40;45.60
75819;DHT22;64453;51.944;9.796;2022-11-20T06:15:48;0.40;45.70
75819;DHT22;64453;51.944;9.796;2022-11-20T06:18:16;0.50;45.30
75819;DHT22;64453;51.944;9.796;2022-11-20T06:20:44;0.40;45.50
75819;DHT22;64453;51.944;9.796;2022-11-20T06:23:12;0.40;45.70
75819;DHT22;64453;51.944;9.796;2022-11-20T06:25:41;0.30;45.80
75819;DHT22;64453;51.944;9.796;2022-11-20T06:28:09;0.30;45.90
75819;DHT22;64453;51.944;9.796;2022-11-20T06:30:36;0.50;45.60
75819;DHT22;64453;51.944;9.796;2022-11-20T06:33:04;0.50;45.50
75819;DHT22;64453;51.944;9.796;2022-11-20T06:35:31;0.60;45.20
75819;DHT22;64453;51.944;9.796;2022-11-20T06:37:59;0.40;45.20
75819;DHT22;64453;51.944;9.796;2022-11-20T06:40:26;0.40;45.70
75819;DHT22;64453;51.944;9.796;2022-11-20T06:42:53;0.30;45.60
75819;DHT22;64453;51.944;9.796;2022-11-20T06:45:21;0.50;45.60
75819;DHT22;64453;51.944;9.796;2022-11-20T06:47:48;0.70;45.20
75819;DHT22;64453;51.944;9.796;2022-11-20T06:50:15;0.20;46.30
75819;DHT22;64453;51.944;9.796;2022-11-20T06:52:42;0.40;46.40
75819;DHT22;64453;51.944;9.796;2022-11-20T06:55:11;0.40;46.00
75819;DHT22;64453;51.944;9.796;2022-11-20T06:57:38;0.40;45.80
75819;DHT22;64453;51.944;9.796;2022-11-20T07:00:06;0.40;45.80
75819;DHT22;64453;51.944;9.796;2022-11-20T07:02:34;0.30;45.50
75819;DHT22;64453;51.944;9.796;2022-11-20T07:05:01;0.30;45.70
75819;DHT22;64453;51.944;9.796;2022-11-20T07:07:29;0.20;45.50
75819;DHT22;64453;51.944;9.796;2022-11-20T07:09:56;0.20;45.70
75819;DHT22;64453;51.944;9.796;2022-11-20T07:12:24;0.10;45.50
75819;DHT22;64453;51.944;9.796;2022-11-20T07:14:51;0.00;45.70
75819;DHT22;64453;51.944;9.796;2022-11-20T07:17:18;0.10;45.80
75819;DHT22;64453;51.944;9.796;2022-11-20T07:19:45;0.00;45.80
75819;DHT22;64453;51.944;9.796;2022-11-20T07:22:12;0.10;45.80
75819;DHT22;64453;51.944;9.796;2022-11-20T07:24:39;0.10;45.80
75819;DHT22;64453;51.944;9.796;2022-11-20T07:27:06;0.20;45.90
75819;DHT22;64453;51.944;9.796;2022-11-20T07:29:35;0.10;46.10
75819;DHT22;64453;51.944;9.796;2022-11-20T07:32:02;0.10;46.10
75819;DHT22;64453;51.944;9.796;2022-11-20T07:34:30;0.20;46.20
75819;DHT22;64453;51.944;9.796;2022-11-20T07:36:57;0.20;46.10
75819;DHT22;64453;51.944;9.796;2022-11-20T07:39:24;0.30;46.20
75819;DHT22;64453;51.944;9.796;2022-11-20T07:41:51;0.40;46.40
75819;DHT22;64453;51.944;9.796;2022-11-20T07:44:19;0.50;46.10
75819;DHT22;64453;51.944;9.796;2022-11-20T07:46:47;0.60;45.80
75819;DHT22;64453;51.944;9.796;2022-11-20T07:49:15;0.70;46.00
75819;DHT22;64453;51.944;9.796;2022-11-20T07:51:42;0.90;46.00
75819;DHT22;64453;51.944;9.796;2022-11-20T07:54:09;0.80;46.50
75819;DHT22;64453;51.944;9.796;2022-11-20T07:56:36;0.90;46.90
75819;DHT22;64453;51.944;9.796;2022-11-20T07:59:03;0.90;46.80
75819;DHT22;64453;51.944;9.796;2022-11-20T08:01:30;1.00;46.80
75819;DHT22;64453;51.944;9.796;2022-11-20T08:03:58;0.90;46.60
75819;DHT22;64453;51.944;9.796;2022-11-20T08:06:25;0.90;47.20
75819;DHT22;64453;51.944;9.796;2022-11-20T08:08:52;0.90;47.20
75819;DHT22;64453;51.944;9.796;2022-11-20T08:11:20;1.00;47.60
75819;DHT22;64453;51.944;9.796;2022-11-20T08:14:05;1.20;47.70
75819;DHT22;64453;51.944;9.796;2022-11-20T08:16:42;1.10;48.20
75819;DHT22;64453;51.944;9.796;2022-11-20T08:19:11;1.20;48.60
75819;DHT22;64453;51.944;9.796;2022-11-20T08:21:39;1.30;49.10
75819;DHT22;64453;51.944;9.796;2022-11-20T08:24:07;1.40;49.70
75819;DHT22;64453;51.944;9.796;2022-11-20T08:26:35;1.60;49.60
75819;DHT22;64453;51.944;9.796;2022-11-20T08:29:04;1.70;49.50
75819;DHT22;64453;51.944;9.796;2022-11-20T08:31:32;1.70;49.40
75819;DHT22;64453;51.944;9.796;2022-11-20T08:33:59;1.90;49.10
75819;DHT22;64453;51.944;9.796;2022-11-20T08:36:28;2.00;49.20
75819;DHT22;64453;51.944;9.796;2022-11-20T08:38:55;2.10;49.20
75819;DHT22;64453;51.944;9.796;2022-11-20T08:41:22;2.20;48.60
75819;DHT22;64453;51.944;9.796;2022-11-20T08:43:55;2.30;48.70
75819;DHT22;64453;51.944;9.796;2022-11-20T08:46:23;2.30;48.80
75819;DHT22;64453;51.944;9.796;2022-11-20T08:48:51;2.50;48.60
75819;DHT22;64453;51.944;9.796;2022-11-20T08:51:19;2.50;48.80
75819;DHT22;64453;51.944;9.796;2022-11-20T08:53:47;2.40;49.30
75819;DHT22;64453;51.944;9.796;2022-11-20T08:56:15;2.40;49.20
75819;DHT22;64453;51.944;9.796;2022-11-20T08:58:42;2.50;49.30
75819;DHT22;64453;51.944;9.796;2022-11-20T09:01:09;2.70;49.20
75819;DHT22;64453;51.944;9.796;2022-11-20T09:03:36;2.70;49.10
75819;DHT22;64453;51.944;9.796;2022-11-20T09:06:06;2.90;48.90
75819;DHT22;64453;51.944;9.796;2022-11-20T09:08:34;2.90;49.10
75819;DHT22;64453;51.944;9.796;2022-11-20T09:11:04;2.90;48.80
75819;DHT22;64453;51.944;9.796;2022-11-20T09:13:32;2.80;49.10
75819;DHT22;64453;51.944;9.796;2022-11-20T09:16:02;2.80;49.30
75819;DHT22;64453;51.944;9.796;2022-11-20T09:18:31;3.00;49.60
75819;DHT22;64453;51.944;9.796;2022-11-20T09:21:00;3.10;49.60
75819;DHT22;64453;51.944;9.796;2022-11-20T09:23:32;3.20;49.70
75819;DHT22;64453;51.944;9.796;2022-11-20T09:26:03;3.30;49.30
75819;DHT22;64453;51.944;9.796;2022-11-20T09:28:31;3.40;49.20
75819;DHT22;64453;51.944;9.796;2022-11-20T09:30:59;3.50;49.20
75819;DHT22;64453;51.944;9.796;2022-11-20T09:33:26;3.60;49.20
75819;DHT22;64453;51.944;9.796;2022-11-20T09:35:53;3.60;49.40
75819;DHT22;64453;51.944;9.796;2022-11-20T09:38:20;3.60;49.50
75819;DHT22;64453;51.944;9.796;2022-11-20T09:40:52;3.70;49.10
75819;DHT22;64453;51.944;9.796;2022-11-20T09:43:32;3.70;48.60
75819;DHT22;64453;51.944;9.796;2022-11-20T09:46:11;3.80;48.40
75819;DHT22;64453;51.944;9.796;2022-11-20T09:49:03;3.80;48.40
75819;DHT22;64453;51.944;9.796;2022-11-20T09:51:42;3.80;49.20
75819;DHT22;64453;51.944;9.796;2022-11-20T09:54:17;3.80;49.10
75819;DHT22;64453;51.944;9.796;2022-11-20T09:56:47;3.90;48.60
75819;DHT22;64453;51.944;9.796;2022-11-20T09:59:36;3.90;48.50
75819;DHT22;64453;51.944;9.796;2022-11-20T10:02:16;3.70;48.40
75819;DHT22;64453;51.944;9.796;2022-11-20T10:04:49;3.60;48.60
75819;DHT22;64453;51.944;9.796;2022-11-20T10:07:23;3.60;48.60
75819;DHT22;64453;51.944;9.796;2022-11-20T10:09:53;3.50;48.50
75819;DHT22;64453;51.944;9.796;2022-11-20T10:12:27;3.50;48.40
75819;DHT22;64453;51.944;9.796;2022-11-20T10:15:12;3.40;48.60
75819;DHT22;64453;51.944;9.796;2022-11-20T10:18:02;3.50;48.80
75819;DHT22;64453;51.944;9.796;2022-11-20T10:20:44;3.40;48.80
75819;DHT22;64453;51.944;9.796;2022-11-20T10:26:21;3.50;48.80
75819;DHT22;64453;51.944;9.796;2022-11-20T10:29:00;3.70;49.10
75819;DHT22;64453;51.944;9.796;2022-11-20T10:31:38;3.70;49.00
75819;DHT22;64453;51.944;9.796;2022-11-20T10:34:12;4.00;48.30
75819;DHT22;64453;51.944;9.796;2022-11-20T10:36:47;4.00;48.60
75819;DHT22;64453;51.944;9.796;2022-11-20T10:39:21;3.90;48.50
75819;DHT22;64453;51.944;9.796;2022-11-20T10:41:53;3.90;48.60
75819;DHT22;64453;51.944;9.796;2022-11-20T10:44:22;3.80;48.60
75819;DHT22;64453;51.944;9.796;2022-11-20T10:47:13;3.80;48.80
75819;DHT22;64453;51.944;9.796;2022-11-20T10:49:43;3.70;48.80
75819;DHT22;64453;51.944;9.796;2022-11-20T10:52:17;3.70;48.90
75819;DHT22;64453;51.944;9.796;2022-11-20T10:54:56;3.70;48.90
75819;DHT22;64453;51.944;9.796;2022-11-20T10:57:40;3.80;49.10
75819;DHT22;64453;51.944;9.796;2022-11-20T11:00:16;3.80;48.90
75819;DHT22;64453;51.944;9.796;2022-11-20T11:02:47;3.80;48.90
75819;DHT22;64453;51.944;9.796;2022-11-20T11:05:24;3.90;49.00
75819;DHT22;64453;51.944;9.796;2022-11-20T11:07:57;4.00;49.00
75819;DHT22;64453;51.944;9.796;2022-11-20T11:10:30;4.00;49.00
75819;DHT22;64453;51.944;9.796;2022-11-20T11:13:02;4.00;49.40
75819;DHT22;64453;51.944;9.796;2022-11-20T11:15:37;4.00;49.40
75819;DHT22;64453;51.944;9.796;2022-11-20T11:18:08;4.10;49.20
75819;DHT22;64453;51.944;9.796;2022-11-20T11:20:36;4.20;49.10
75819;DHT22;64453;51.944;9.796;2022-11-20T11:23:04;4.10;49.10
75819;DHT22;64453;51.944;9.796;2022-11-20T11:25:32;4.20;48.80
75819;DHT22;64453;51.944;9.796;2022-11-20T11:28:02;4.40;48.60
75819;DHT22;64453;51.944;9.796;2022-11-20T11:30:41;4.30;48.90
75819;DHT22;64453;51.944;9.796;2022-11-20T11:33:18;4.20;48.80
75819;DHT22;64453;51.944;9.796;2022-11-20T11:35:54;4.40;48.70
75819;DHT22;64453;51.944;9.796;2022-11-20T11:38:30;4.40;48.90
75819;DHT22;64453;51.944;9.796;2022-11-20T11:41:01;4.30;48.80
75819;DHT22;64453;51.944;9.796;2022-11-20T11:43:32;4.30;49.00
75819;DHT22;64453;51.944;9.796;2022-11-20T11:46:30;4.40;49.00
75819;DHT22;64453;51.944;9.796;2022-11-20T11:49:01;4.30;49.00
75819;DHT22;64453;51.944;9.796;2022-11-20T11:51:45;4.40;49.00
75819;DHT22;64453;51.944;9.796;2022-11-20T11:54:22;4.40;49.20
75819;DHT22;64453;51.944;9.796;2022-11-20T11:56:51;4.40;49.40
75819;DHT22;64453;51.944;9.796;2022-11-20T11:59:25;4.30;49.40
75819;DHT22;64453;51.944;9.796;2022-11-20T12:01:56;4.40;49.50
75819;DHT22;64453;51.944;9.796;2022-11-20T12:04:40;4.40;49.60
75819;DHT22;64453;51.944;9.796;2022-11-20T12:07:12;4.60;49.40
75819;DHT22;64453;51.944;9.796;2022-11-20T12:09:47;4.60;49.40
75819;DHT22;64453;51.944;9.796;2022-11-20T12:12:19;4.60;49.20
75819;DHT22;64453;51.944;9.796;2022-11-20T12:14:48;4.70;49.10
75819;DHT22;64453;51.944;9.796;2022-11-20T12:17:18;4.70;49.10
75819;DHT22;64453;51.944;9.796;2022-11-20T12:19:46;4.80;49.40
75819;DHT22;64453;51.944;9.796;2022-11-20T12:22:25;4.90;49.50
75819;DHT22;64453;51.944;9.796;2022-11-20T12:25:00;5.00;49.60
75819;DHT22;64453;51.944;9.796;2022-11-20T12:27:52;5.00;49.40
75819;DHT22;64453;51.944;9.796;2022-11-20T12:30:31;5.00;49.40
75819;DHT22;64453;51.944;9.796;2022-11-20T12:33:18;5.10;49.30
75819;DHT22;64453;51.944;9.796;2022-11-20T12:36:01;5.10;49.40
75819;DHT22;64453;51.944;9.796;2022-11-20T12:38:45;5.10;49.30
75819;DHT22;64453;51.944;9.796;2022-11-20T12:41:28;5.10;49.50
75819;DHT22;64453;51.944;9.796;2022-11-20T12:44:41;5.00;49.70
75819;DHT22;64453;51.944;9.796;2022-11-20T12:47:51;5.10;49.70
75819;DHT22;64453;51.944;9.796;2022-11-20T12:50:33;5.20;49.10
75819;DHT22;64453;51.944;9.796;2022-11-20T12:53:15;5.30;49.10
75819;DHT22;64453;51.944;9.796;2022-11-20T12:55:53;5.30;49.10
75819;DHT22;64453;51.944;9.796;2022-11-20T12:58:27;5.30;48.90
75819;DHT22;64453;51.944;9.796;2022-11-20T13:01:06;5.50;48.70
75819;DHT22;64453;51.944;9.796;2022-11-20T13:04:08;5.50;48.70
75819;DHT22;64453;51.944;9.796;2022-11-20T13:06:44;5.50;48.80
75819;DHT22;64453;51.944;9.796;2022-11-20T13:09:15;5.40;49.10
75819;DHT22;64453;51.944;9.796;2022-11-20T13:11:47;5.40;49.30
75819;DHT22;64453;51.944;9.796;2022-11-20T13:14:28;5.50;49.30
75819;DHT22;64453;51.944;9.796;2022-11-20T13:17:03;5.50;49.10
75819;DHT22;64453;51.944;9.796;2022-11-20T13:19:32;5.50;49.10
75819;DHT22;64453;51.944;9.796;2022-11-20T13:22:00;5.70;48.80
75819;DHT22;64453;51.944;9.796;2022-11-20T13:24:30;5.70;48.50
75819;DHT22;64453;51.944;9.796;2022-11-20T13:27:16;5.70;48.70
75819;DHT22;64453;51.944;9.796;2022-11-20T13:29:47;5.70;48.90
75819;DHT22;64453;51.944;9.796;2022-11-20T13:32:27;5.70;48.70
75819;DHT22;64453;51.944;9.796;2022-11-20T13:34:59;5.80;48.50
75819;DHT22;64453;51.944;9.796;2022-11-20T13:37:29;5.80;48.40
75819;DHT22;64453;51.944;9.796;2022-11-20T13:40:21;5.90;48.30
75819;DHT22;64453;51.944;9.796;2022-11-20T13:43:00;5.90;48.40
75819;DHT22;64453;51.944;9.796;2022-11-20T13:45:30;5.90;48.50
75819;DHT22;64453;51.944;9.796;2022-11-20T13:48:02;5.80;48.70
75819;DHT22;64453;51.944;9.796;2022-11-20T13:50:46;5.90;48.70
75819;DHT22;64453;51.944;9.796;2022-11-20T13:53:30;5.90;48.60
75819;DHT22;64453;51.944;9.796;2022-11-20T13:56:09;5.90;48.70
75819;DHT22;64453;51.944;9.796;2022-11-20T13:58:48;5.90;48.80
75819;DHT22;64453;51.944;9.796;2022-11-20T14:01:24;5.90;49.00
75819;DHT22;64453;51.944;9.796;2022-11-20T14:03:53;6.00;48.90
75819;DHT22;64453;51.944;9.796;2022-11-20T14:06:26;6.10;49.00
75819;DHT22;64453;51.944;9.796;2022-11-20T14:08:54;6.10;49.00
75819;DHT22;64453;51.944;9.796;2022-11-20T14:11:24;6.00;49.10
75819;DHT22;64453;51.944;9.796;2022-11-20T14:13:58;6.00;49.00
75819;DHT22;64453;51.944;9.796;2022-11-20T14:16:28;6.00;49.10
75819;DHT22;64453;51.944;9.796;2022-11-20T14:18:57;6.00;49.30
75819;DHT22;64453;51.944;9.796;2022-11-20T14:21:28;5.90;49.20
75819;DHT22;64453;51.944;9.796;2022-11-20T14:24:06;6.00;49.10
75819;DHT22;64453;51.944;9.796;2022-11-20T14:26:41;6.10;48.90
75819;DHT22;64453;51.944;9.796;2022-11-20T14:29:12;6.00;49.20
75819;DHT22;64453;51.944;9.796;2022-11-20T14:31:40;5.90;49.20
75819;DHT22;64453;51.944;9.796;2022-11-20T14:34:12;6.00;49.10
75819;DHT22;64453;51.944;9.796;2022-11-20T14:36:43;6.00;49.10
75819;DHT22;64453;51.944;9.796;2022-11-20T14:39:11;6.00;49.20
75819;DHT22;64453;51.944;9.796;2022-11-20T14:41:50;5.90;49.30
75819;DHT22;64453;51.944;9.796;2022-11-20T14:44:20;5.90;49.10
75819;DHT22;64453;51.944;9.796;2022-11-20T14:46:50;5.90;49.10
75819;DHT22;64453;51.944;9.796;2022-11-20T14:49:18;5.70;49.30
75819;DHT22;64453;51.944;9.796;2022-11-20T14:51:45;5.60;50.00
75819;DHT22;64453;51.944;9.796;2022-11-20T14:54:14;5.40;50.10
75819;DHT22;64453;51.944;9.796;2022-11-20T14:56:53;5.40;50.10
75819;DHT22;64453;51.944;9.796;2022-11-20T14:59:23;5.40;50.00
75819;DHT22;64453;51.944;9.796;2022-11-20T15:01:55;5.40;49.90
75819;DHT22;64453;51.944;9.796;2022-11-20T15:04:24;5.20;49.90
75819;DHT22;64453;51.944;9.796;2022-11-20T15:06:52;5.20;50.30
75819;DHT22;64453;51.944;9.796;2022-11-20T15:09:20;5.20;50.10
75819;DHT22;64453;51.944;9.796;2022-11-20T15:11:55;5.20;50.40
75819;DHT22;64453;51.944;9.796;2022-11-20T15:14:23;5.10;50.30
75819;DHT22;64453;51.944;9.796;2022-11-20T15:16:52;5.10;50.10
75819;DHT22;64453;51.944;9.796;2022-11-20T15:19:21;5.10;50.10
75819;DHT22;64453;51.944;9.796;2022-11-20T15:21:50;5.10;50.30
75819;DHT22;64453;51.944;9.796;2022-11-20T15:24:17;5.00;50.30
75819;DHT22;64453;51.944;9.796;2022-11-20T15:26:44;4.90;50.30
75819;DHT22;64453;51.944;9.796;2022-11-20T15:29:15;4.90;50.30
75819;DHT22;64453;51.944;9.796;2022-11-20T15:31:44;4.90;50.70
75819;DHT22;64453;51.944;9.796;2022-11-20T15:34:12;4.90;50.70
75819;DHT22;64453;51.944;9.796;2022-11-20T15:36:42;4.80;50.80
75819;DHT22;64453;51.944;9.796;2022-11-20T15:39:09;4.80;50.90
75819;DHT22;64453;51.944;9.796;2022-11-20T15:41:38;4.80;50.60
75819;DHT22;64453;51.944;9.796;2022-11-20T15:44:05;4.80;50.50
75819;DHT22;64453;51.944;9.796;2022-11-20T15:46:39;4.80;50.50
75819;DHT22;64453;51.944;9.796;2022-11-20T15:49:15;4.70;50.80
75819;DHT22;64453;51.944;9.796;2022-11-20T15:51:53;4.60;51.10
75819;DHT22;64453;51.944;9.796;2022-11-20T15:54:25;4.60;51.00
75819;DHT22;64453;51.944;9.796;2022-11-20T15:56:52;4.60;51.00
75819;DHT22;64453;51.944;9.796;2022-11-20T15:59:20;4.60;51.10
75819;DHT22;64453;51.944;9.796;2022-11-20T16:02:07;4.60;51.90
75819;DHT22;64453;51.944;9.796;2022-11-20T16:04:42;4.60;51.00
75819;DHT22;64453;51.944;9.796;2022-11-20T16:07:09;4.50;51.20
75819;DHT22;64453;51.944;9.796;2022-11-20T16:09:37;4.60;51.20
75819;DHT22;64453;51.944;9.796;2022-11-20T16:12:07;4.60;51.00